createdAt,value
2022-11-04T00:05:00.982Z,24.57
2022-11-04T00:10:08.114Z,24.56
2022-11-04T00:15:15.319Z,24.57
2022-11-04T00:20:22.543Z,24.57
2022-11-04T00:25:29.906Z,24.51
2022-11-04T00:30:36.932Z,24.47
2022-11-04T00:35:44.118Z,24.43
2022-11-04T00:40:51.362Z,24.30
2022-11-04T00:45:58.571Z,24.21
2022-11-04T00:51:05.892Z,24.14
2022-11-04T00:56:12.993Z,24.06
2022-11-04T01:01:20.385Z,23.95
2022-11-04T01:06:27.407Z,23.86
2022-11-04T01:11:34.624Z,23.81
2022-11-04T01:16:41.897Z,23.74
2022-11-04T01:21:49.075Z,23.68
2022-11-04T01:26:56.532Z,23.60
2022-11-04T01:32:03.707Z,23.54
2022-11-04T01:37:10.929Z,23.50
2022-11-04T01:42:18.147Z,23.43
2022-11-04T01:47:25.350Z,23.35
2022-11-04T01:52:32.555Z,23.29
2022-11-04T01:57:39.826Z,23.24
2022-11-04T02:02:47.031Z,23.18
2022-11-04T02:07:54.271Z,23.13
2022-11-04T02:13:01.457Z,23.07
2022-11-04T02:18:08.632Z,23.02
2022-11-04T02:23:15.903Z,22.99
2022-11-04T02:28:23.095Z,22.96
2022-11-04T02:33:30.358Z,22.92
2022-11-04T02:38:37.589Z,22.90
2022-11-04T02:43:44.729Z,22.88
2022-11-04T02:48:51.998Z,22.87
2022-11-04T02:53:59.182Z,22.86
2022-11-04T02:59:06.429Z,22.84
2022-11-04T03:04:13.589Z,22.81
2022-11-04T03:09:20.863Z,22.80
2022-11-04T03:14:28.113Z,22.80
2022-11-04T03:19:35.298Z,22.78
2022-11-04T03:24:42.532Z,22.78
2022-11-04T03:29:49.688Z,22.78
2022-11-04T03:34:56.927Z,22.75
2022-11-04T03:40:04.123Z,22.71
2022-11-04T03:45:11.300Z,22.70
2022-11-04T03:50:18.527Z,22.67
2022-11-04T03:55:27.069Z,22.63
2022-11-04T04:00:34.293Z,22.60
2022-11-04T04:05:41.483Z,22.56
2022-11-04T04:10:48.700Z,22.53
2022-11-04T04:15:55.889Z,22.52
2022-11-04T04:21:03.103Z,22.51
2022-11-04T04:26:10.570Z,22.51
2022-11-04T04:31:17.827Z,22.50
2022-11-04T04:36:25.056Z,22.48
2022-11-04T04:41:32.284Z,22.48
2022-11-04T04:46:39.449Z,22.50
2022-11-04T04:51:46.717Z,22.50
2022-11-04T04:56:53.975Z,22.48
2022-11-04T05:02:01.260Z,22.47
2022-11-04T05:07:08.348Z,22.48
2022-11-04T05:12:15.593Z,22.46
2022-11-04T05:17:22.761Z,22.46
2022-11-04T05:22:29.952Z,22.46
2022-11-04T05:27:37.172Z,22.45
2022-11-04T05:32:44.367Z,22.41
2022-11-04T05:37:51.535Z,22.37
2022-11-04T05:43:00.710Z,22.37
2022-11-04T05:48:07.896Z,22.35
2022-11-04T05:53:15.212Z,22.32
2022-11-04T05:58:22.418Z,22.31
2022-11-04T06:03:29.578Z,22.31
2022-11-04T06:08:41.044Z,22.31
2022-11-04T06:13:44.094Z,22.30
2022-11-04T06:18:51.352Z,22.29
2022-11-04T06:23:58.546Z,22.31
2022-11-04T06:29:05.763Z,22.32
2022-11-04T06:34:12.932Z,22.31
2022-11-04T06:39:20.175Z,22.29
2022-11-04T06:44:27.432Z,22.29
2022-11-04T06:49:34.635Z,22.30
2022-11-04T06:54:41.873Z,22.28
2022-11-04T06:59:49.150Z,22.29
2022-11-04T07:10:03.512Z,22.27
2022-11-04T07:15:10.729Z,22.23
2022-11-04T07:20:17.942Z,22.22
2022-11-04T07:25:25.211Z,22.21
2022-11-04T07:30:32.511Z,22.20
2022-11-04T07:35:39.735Z,22.17
2022-11-04T07:40:46.946Z,22.16
2022-11-04T07:45:54.139Z,22.17
2022-11-04T07:51:01.339Z,22.16
2022-11-04T07:56:08.554Z,22.17
2022-11-04T08:01:15.834Z,22.19
2022-11-04T08:06:24.043Z,22.18
2022-11-04T08:11:31.211Z,22.18
2022-11-04T08:16:38.445Z,22.21
2022-11-04T08:21:45.579Z,22.21
2022-11-04T08:26:52.802Z,22.20
2022-11-04T08:32:00.031Z,22.18
2022-11-04T08:37:07.233Z,22.16
2022-11-04T08:42:14.475Z,22.16
2022-11-04T08:47:22.004Z,22.14
2022-11-04T08:52:29.228Z,22.12
2022-11-04T08:57:36.449Z,22.09
2022-11-04T09:02:43.616Z,22.07
2022-11-04T09:07:50.791Z,22.06
2022-11-04T09:12:57.982Z,22.05
2022-11-04T09:18:05.385Z,22.06
2022-11-04T09:23:12.616Z,22.07
2022-11-04T09:28:19.567Z,22.10
2022-11-04T09:33:26.906Z,22.12
2022-11-04T09:38:33.991Z,22.15
2022-11-04T09:43:41.180Z,22.15
2022-11-04T09:48:48.497Z,22.14
2022-11-04T09:53:55.545Z,22.16
2022-11-04T09:59:02.714Z,22.16
2022-11-04T10:04:10.134Z,22.15
2022-11-04T10:09:18.548Z,22.13
2022-11-04T10:14:25.740Z,22.13
2022-11-04T10:19:33.110Z,22.11
2022-11-04T10:24:40.049Z,22.08
2022-11-04T10:29:47.252Z,22.08
2022-11-04T10:34:54.622Z,22.06
2022-11-04T10:40:01.760Z,22.06
2022-11-04T10:45:08.980Z,22.03
2022-11-04T10:50:32.048Z,22.04
2022-11-04T10:55:23.591Z,22.03
2022-11-04T11:00:32.471Z,22.06
2022-11-04T11:05:39.663Z,22.11
2022-11-04T11:10:46.842Z,22.12
2022-11-04T11:15:53.998Z,22.15
2022-11-04T11:21:01.237Z,22.15
2022-11-04T11:26:10.445Z,22.18
2022-11-04T11:31:17.837Z,22.17
2022-11-04T11:36:26.199Z,22.16
2022-11-04T11:41:33.469Z,22.13
2022-11-04T11:46:40.651Z,22.13
2022-11-04T11:51:47.898Z,22.11
2022-11-04T12:02:02.506Z,22.10
2022-11-04T12:12:16.905Z,22.06
2022-11-04T12:17:24.106Z,22.04
2022-11-04T12:22:31.325Z,22.03
2022-11-04T12:27:38.526Z,22.02
2022-11-04T12:32:45.722Z,22.03
2022-11-04T12:37:52.961Z,22.08
2022-11-04T12:43:00.108Z,22.10
2022-11-04T12:48:07.312Z,22.15
2022-11-04T12:53:14.551Z,22.16
2022-11-04T12:58:21.789Z,22.16
2022-11-04T13:03:28.968Z,22.16
2022-11-04T13:08:36.194Z,22.16
2022-11-04T13:13:46.291Z,22.12
2022-11-04T13:18:53.434Z,22.14
2022-11-04T13:24:00.660Z,22.10
2022-11-04T13:29:09.200Z,22.09
2022-11-04T13:34:22.095Z,22.07
2022-11-04T13:39:24.543Z,22.08
2022-11-04T13:44:31.817Z,22.07
2022-11-04T13:49:38.963Z,22.06
2022-11-04T13:54:46.223Z,22.06
2022-11-04T13:59:53.504Z,22.05
2022-11-04T14:05:00.666Z,22.07
2022-11-04T14:10:07.936Z,22.11
2022-11-04T14:15:15.209Z,22.13
2022-11-04T14:20:22.461Z,22.17
2022-11-04T14:25:29.711Z,22.17
2022-11-04T14:30:36.912Z,22.17
2022-11-04T14:35:44.339Z,22.17
2022-11-04T14:40:51.780Z,22.17
2022-11-04T14:45:58.977Z,22.16
2022-11-04T14:51:06.206Z,22.13
2022-11-04T14:56:14.994Z,22.10
2022-11-04T15:01:20.772Z,22.09
2022-11-04T15:06:40.259Z,22.06
2022-11-04T15:11:35.147Z,22.05
2022-11-04T15:16:42.311Z,22.03
2022-11-04T15:21:49.492Z,22.03
2022-11-04T15:26:57.021Z,22.02
2022-11-04T15:32:05.470Z,22.02
2022-11-04T15:37:12.541Z,22.00
2022-11-04T15:42:19.976Z,22.03
2022-11-04T15:47:27.250Z,22.05
2022-11-04T15:52:34.489Z,22.09
2022-11-04T15:57:42.001Z,22.13
2022-11-04T16:02:49.404Z,22.15
2022-11-04T16:07:56.930Z,22.16
2022-11-04T16:13:04.277Z,22.15
2022-11-04T16:18:11.706Z,22.12
2022-11-04T16:23:19.041Z,22.10
2022-11-04T16:28:26.562Z,22.09
2022-11-04T16:33:33.856Z,22.06
2022-11-04T16:38:41.346Z,22.06
2022-11-04T16:43:49.070Z,22.04
2022-11-04T16:48:57.607Z,22.01
2022-11-04T16:54:05.215Z,22.00
2022-11-04T16:59:12.955Z,22.00
2022-11-04T17:04:20.452Z,21.99
2022-11-04T17:09:27.854Z,21.96
2022-11-04T17:14:35.429Z,21.94
2022-11-04T17:19:42.774Z,21.95
2022-11-04T17:24:50.181Z,21.99
2022-11-04T17:29:58.049Z,22.04
2022-11-04T17:35:05.511Z,22.07
2022-11-04T17:40:13.124Z,22.09
2022-11-04T17:45:22.299Z,22.09
2022-11-04T17:50:29.541Z,22.07
2022-11-04T17:55:36.950Z,22.13
2022-11-04T18:00:44.632Z,22.21
2022-11-04T18:05:51.985Z,22.31
2022-11-04T18:10:59.203Z,22.41
2022-11-04T18:16:08.385Z,22.50
2022-11-04T18:21:15.632Z,22.59
2022-11-04T18:26:22.894Z,22.71
2022-11-04T18:31:30.206Z,22.81
2022-11-04T18:36:37.600Z,22.90
2022-11-04T18:41:45.426Z,22.98
2022-11-04T18:46:52.963Z,23.05
2022-11-04T18:52:00.651Z,23.11
2022-11-04T18:57:08.270Z,23.18
2022-11-04T19:02:16.246Z,23.28
2022-11-04T19:07:23.522Z,23.38
2022-11-04T19:12:31.212Z,23.46
2022-11-04T19:17:38.850Z,23.55
2022-11-04T19:22:46.435Z,23.62
2022-11-04T19:28:18.601Z,23.75
2022-11-04T19:33:01.487Z,23.82
2022-11-04T19:38:10.407Z,23.90
2022-11-04T19:43:17.818Z,23.97
2022-11-04T19:48:25.598Z,24.08
2022-11-04T19:53:33.047Z,24.13
2022-11-04T19:58:40.661Z,24.20
2022-11-04T20:03:48.290Z,24.28
2022-11-04T20:08:55.249Z,24.35
2022-11-04T20:14:07.792Z,24.42
2022-11-04T20:19:10.263Z,24.41
2022-11-04T20:24:17.386Z,24.46
2022-11-04T20:29:24.913Z,24.52
2022-11-04T20:34:33.033Z,24.56
2022-11-04T20:39:39.835Z,24.62
2022-11-04T20:44:47.057Z,24.68
2022-11-04T20:49:54.469Z,24.77
2022-11-04T20:55:03.084Z,24.79
2022-11-04T21:00:10.605Z,24.81
2022-11-04T21:05:18.172Z,24.82
2022-11-04T21:10:25.370Z,24.84
2022-11-04T21:15:32.931Z,24.87
2022-11-04T21:20:40.384Z,24.88
2022-11-04T21:25:47.801Z,24.90
2022-11-04T21:30:55.259Z,24.96
2022-11-04T21:36:02.926Z,24.99
2022-11-04T21:41:10.157Z,24.97
2022-11-04T21:46:17.339Z,25.01
2022-11-04T21:51:24.521Z,25.10
2022-11-04T21:56:31.784Z,25.04
2022-11-04T22:01:39.210Z,25.09
2022-11-04T22:06:46.308Z,25.11
2022-11-04T22:11:53.464Z,25.15
2022-11-04T22:17:00.720Z,25.14
2022-11-04T22:22:07.910Z,25.13
2022-11-04T22:27:15.071Z,25.09
2022-11-04T22:32:22.333Z,25.01
2022-11-04T22:37:29.611Z,24.96
2022-11-04T22:42:36.746Z,24.93
2022-11-04T22:47:43.955Z,24.88
2022-11-04T22:52:51.327Z,24.87
2022-11-04T22:57:58.579Z,24.84
2022-11-04T23:03:05.957Z,24.83
2022-11-04T23:08:13.081Z,24.83
2022-11-04T23:13:20.141Z,24.80
2022-11-04T23:18:27.374Z,24.77
2022-11-04T23:23:34.610Z,24.77
2022-11-04T23:28:41.930Z,24.75
2022-11-04T23:33:49.126Z,24.74
2022-11-04T23:38:58.037Z,24.73
2022-11-04T23:44:05.183Z,24.68
2022-11-04T23:49:12.432Z,24.69
2022-11-04T23:54:19.601Z,24.69
2022-11-04T23:59:26.820Z,24.70
